Observations for FARNBOROUGH, United Kingdom (EGLF)

EGLF 201650Z 21011KT 9999 FEW025 SCT028 21/16 Q1019 
EGLF 201620Z 21010KT 190V250 9999 SCT028 22/17 Q1019
EGLF 201550Z 26009KT 230V300 9999 SCT032 23/15 Q1019
EGLF 201520Z 24013KT 210V270 9999 SCT032 23/15 Q1019
EGLF 201450Z 24012KT 9999 SCT029 22/15 Q1019
EGLF 201420Z 23012KT 190V260 9999 SCT029 22/15 Q1020
EGLF 201420Z 23012KT 190V2670 9999 SCT029 22/15 Q1020
EGLF 201350Z 22015KT 9999 FEW025 SCT028 23/15 Q1020 
EGLF 201320Z 23013KT 200V290 9999 FEW022 BKN025 22/16 Q1020 
EGLF 201250Z 23012KT 9999 FEW022 BKN025 22/15 Q1020 
EGLF 201220Z 22013KT 9999 FEW020 BKN023 22/16 Q1020 
EGLF 201150Z 23011KT 9999 FEW020 BKN022 21/16 Q1020 
EGLF 201120Z 22009KT 180V250 9999 BKN018 20/15 Q1021
EGLF 201050Z 23012KT 200V260 9999 BKN015 19/16 Q1021
EGLF 201020Z 22009KT 180V250 9999 BKN013 18/15 Q1021
EGLF 200950Z 22009KT 190V280 9999 BKN010 17/14 Q1021-   
EGLF 200920Z 22010KT 9999 BKN007 16/14 Q1021
EGLF 200850Z 21009KT 9999 BKN006 16/14 Q1021
EGLF 200820Z 24010KT 9999 BKN006 16/14 Q1021
EGLF 200750Z 22009KT 9999 BKN006 15/14 Q1021
EGLF 200720Z 23010KT 190V250 9000 BKN006 15/13 Q1022
EGLF 200650Z 22008KT 190V260 9999 BKN008 15/13 Q1021
EGLF 200620Z 22010KT 190V250 8000 BKN006 15/14 Q1021
EGLF 200550Z 22009KT 6000 BKN005 15/14 Q1021
EGLF 192020Z 22007KT 9999 FEW045 19/16 Q1023
EGLF 191950Z 21008KT 9999 FEW023 18/15 Q1022
EGLF 191850Z 22011KT 9999 FEW023 20/16 Q1022
EGLF 191820Z 22012KT 9999 FEW023 21/16 Q1022
EGLF 191750Z 21013KT 180V240 9999 FEW023 21/16 Q1023
EGLF 191720Z 21011KT 180V240 9999 SCT023 22/16 Q1022
EGLF 191650Z 21011KT 9999 SCT024 SCT043 21/16 Q1022 
EGLF 191620Z 21011KT 9999 SCT024 BKN044 22/16 Q1023